Time;durP1;ratioP1;P1;durP2;ratioP2;P2;SDS_P1;SDS_P2;PMS_P1;PMS_P2;Temp;Humidity;BMP_temperature;BMP_pressure;BME280_temperature;BME280_humidity;BME280_pressure;Samples;Min_cycle;Max_cycle;Signal;HPM_P1;HPM_P2
2022/06/14 00:03:07;;;;;;;2.65;1.30;;;8.90;99.90;;;;;;4989496;28;20030;-78
2022/06/14 00:05:33;;;;;;;2.03;1.45;;;8.80;99.90;;;;;;4986367;28;20027;-79
2022/06/14 00:07:58;;;;;;;3.25;1.90;;;8.80;99.90;;;;;;4989495;28;20033;-79
2022/06/14 00:10:25;;;;;;;2.08;1.40;;;8.80;99.90;;;;;;4990048;28;20030;-79
2022/06/14 00:12:51;;;;;;;1.38;1.27;;;8.70;99.90;;;;;;4990680;28;20045;-79
2022/06/14 00:15:17;;;;;;;4.28;2.00;;;8.70;99.90;;;;;;4990751;28;20038;-78
2022/06/14 00:17:43;;;;;;;3.53;1.52;;;8.70;99.90;;;;;;4990310;28;20154;-79
2022/06/14 00:20:10;;;;;;;4.00;1.73;;;8.70;99.90;;;;;;5043623;23;20660;-80
2022/06/14 00:22:36;;;;;;;2.17;1.10;;;8.60;99.90;;;;;;5030732;28;20029;-80
2022/06/14 00:25:03;;;;;;;3.00;1.50;;;8.50;99.90;;;;;;5037535;28;20061;-80
2022/06/14 00:27:29;;;;;;;1.80;1.38;;;8.40;99.90;;;;;;5013210;28;20029;-80
2022/06/14 00:29:54;;;;;;;2.25;1.50;;;8.40;99.90;;;;;;5030573;28;20064;-80
2022/06/14 00:32:20;;;;;;;2.53;1.58;;;8.50;99.90;;;;;;5030757;28;20021;-80
2022/06/14 00:34:46;;;;;;;2.45;1.50;;;8.50;99.90;;;;;;5030855;28;20029;-80
2022/06/14 00:37:20;;;;;;;2.80;1.75;;;8.60;99.90;;;;;;5030880;28;20104;-80
2022/06/14 00:39:46;;;;;;;4.07;1.70;;;8.60;99.90;;;;;;5012792;28;20385;-80
2022/06/14 00:42:21;;;;;;;3.15;1.55;;;8.60;99.90;;;;;;5030764;28;20021;-80
2022/06/14 00:45:11;;;;;;;5.88;2.38;;;8.60;99.90;;;;;;5013917;28;20416;-80
2022/06/14 00:47:51;;;;;;;1.70;1.60;;;8.50;99.90;;;;;;5030884;28;20017;-80
2022/06/14 00:50:25;;;;;;;4.18;1.67;;;8.40;99.90;;;;;;5034252;28;20034;-81
2022/06/14 00:52:59;;;;;;;6.60;1.55;;;8.20;99.90;;;;;;5033964;28;20022;-80
2022/06/14 00:55:36;;;;;;;2.25;1.45;;;8.10;99.90;;;;;;5034158;28;20018;-80
2022/06/14 00:58:05;;;;;;;2.17;1.33;;;7.90;99.90;;;;;;5034416;28;20032;-80
2022/06/14 01:00:38;;;;;;;2.00;1.52;;;7.80;99.90;;;;;;5009358;28;20540;-80
2022/06/14 01:03:12;;;;;;;3.85;1.60;;;7.80;99.90;;;;;;5034112;28;20025;-80
2022/06/14 01:06:06;;;;;;;3.00;1.60;;;7.70;99.90;;;;;;5033956;28;20028;-80
2022/06/14 01:08:40;;;;;;;2.55;1.40;;;7.70;99.90;;;;;;5033413;28;20061;-80
2022/06/14 01:11:09;;;;;;;2.17;1.55;;;7.70;99.90;;;;;;5033745;28;20114;-80
2022/06/14 01:13:35;;;;;;;2.38;1.70;;;7.70;99.90;;;;;;4997630;28;21106;-80
2022/06/14 01:16:01;;;;;;;2.50;1.40;;;7.70;99.90;;;;;;5033725;28;20474;-80
2022/06/14 01:20:55;;;;;;;2.30;1.58;;;7.60;99.90;;;;;;4990118;28;20054;-78
2022/06/14 01:23:21;;;;;;;2.38;1.70;;;7.70;99.90;;;;;;4993447;28;20022;-78
2022/06/14 01:25:54;;;;;;;4.18;1.25;;;7.70;99.90;;;;;;4992908;28;20018;-78
2022/06/14 01:28:23;;;;;;;1.58;1.20;;;7.70;99.90;;;;;;4993098;28;20030;-78
2022/06/14 01:30:51;;;;;;;2.00;1.40;;;7.60;99.90;;;;;;4993246;28;20027;-78
2022/06/14 01:33:34;;;;;;;4.85;1.90;;;7.50;99.90;;;;;;4980158;28;20077;-78
2022/06/14 01:36:20;;;;;;;2.15;1.92;;;7.50;99.90;;;;;;4979769;28;20018;-78
2022/06/14 01:38:46;;;;;;;2.22;1.58;;;7.40;99.90;;;;;;4980674;28;20029;-78
2022/06/14 01:41:59;;;;;;;1.55;1.45;;;7.30;99.90;;;;;;4992962;28;20022;-78
2022/06/14 01:44:46;;;;;;;1.67;1.42;;;7.30;99.90;;;;;;4895935;29;20069;-78
2022/06/14 01:47:36;;;;;;;2.92;1.50;;;7.20;99.90;;;;;;4895896;29;20032;-78
2022/06/14 01:53:38;;;;;;;3.90;2.10;;;7.10;99.90;;;;;;4989999;28;20089;-78
2022/06/14 01:56:10;;;;;;;1.70;1.60;;;7.20;99.90;;;;;;4977904;28;20500;-78
2022/06/14 01:58:50;;;;;;;2.83;1.52;;;7.20;99.90;;;;;;4992572;28;20018;-78
2022/06/14 02:01:30;;;;;;;1.70;1.55;;;7.20;99.90;;;;;;4992480;28;20022;-79
2022/06/14 02:06:53;;;;;;;2.72;1.60;;;7.30;99.90;;;;;;4979623;28;20069;-78
2022/06/14 02:09:36;;;;;;;2.25;2.05;;;7.20;99.90;;;;;;4992205;28;20314;-79
2022/06/14 02:12:05;;;;;;;5.68;1.70;;;7.10;99.90;;;;;;4991942;28;20116;-78
2022/06/14 02:15:06;;;;;;;2.33;1.77;;;7.00;99.90;;;;;;4992038;28;20026;-78
2022/06/14 02:17:39;;;;;;;3.42;1.50;;;6.90;99.90;;;;;;4957937;28;20436;-78
2022/06/14 02:20:15;;;;;;;1.70;1.52;;;6.80;99.90;;;;;;5024092;22;20411;-91
2022/06/14 02:22:55;;;;;;;2.22;1.52;;;6.80;99.90;;;;;;5006766;28;20031;-92
2022/06/14 02:25:26;;;;;;;2.20;1.63;;;6.70;99.90;;;;;;4999801;28;20027;-92
2022/06/14 02:28:20;;;;;;;2.08;1.80;;;6.80;99.90;;;;;;4983834;28;20076;-92
2022/06/14 02:30:50;;;;;;;2.00;1.58;;;6.80;99.90;;;;;;5008453;28;20026;-93
2022/06/14 02:33:20;;;;;;;1.90;1.63;;;6.80;99.90;;;;;;4995147;28;20030;-92
2022/06/14 02:35:57;;;;;;;2.20;1.42;;;6.80;99.90;;;;;;4997870;28;20029;-92
2022/06/14 02:38:46;;;;;;;5.75;1.92;;;6.80;99.90;;;;;;4996439;28;20113;-90
2022/06/14 02:41:49;;;;;;;2.20;1.45;;;6.80;99.90;;;;;;4983843;28;20034;-90
2022/06/14 02:44:36;;;;;;;2.70;1.90;;;6.80;99.90;;;;;;4995593;28;20093;-90
2022/06/14 02:47:11;;;;;;;2.30;1.67;;;6.80;99.90;;;;;;4995885;28;20018;-91
2022/06/14 02:49:55;;;;;;;1.95;1.60;;;6.80;99.90;;;;;;5005878;28;20033;-91
2022/06/14 02:52:37;;;;;;;1.67;1.55;;;6.80;99.90;;;;;;4994714;28;20045;-91
2022/06/14 02:55:10;;;;;;;;;;;6.70;99.90;;;;;;4995285;28;20029;-91
2022/06/14 02:57:54;;;;;;;3.70;1.42;;;6.70;99.90;;;;;;5005241;28;19912;-91
2022/06/14 03:00:29;;;;;;;6.85;2.13;;;6.70;99.90;;;;;;5001988;28;20062;-90
2022/06/14 03:03:06;;;;;;;2.65;1.60;;;6.80;99.90;;;;;;5003856;28;20157;-90
2022/06/14 03:05:45;;;;;;;4.40;2.08;;;6.70;99.90;;;;;;5003618;28;20026;-91
2022/06/14 03:08:23;;;;;;;2.60;1.83;;;6.70;99.90;;;;;;4995117;28;20078;-91
2022/06/14 03:10:55;;;;;;;3.55;1.80;;;6.70;99.90;;;;;;5005069;28;20025;-91
2022/06/14 03:14:07;;;;;;;3.25;2.30;;;6.70;99.90;;;;;;5012833;28;20105;-91
2022/06/14 03:16:36;;;;;;;;;;;6.70;99.90;;;;;;4964544;28;20040;-91
2022/06/14 03:19:28;;;;;;;7.43;1.88;;;6.60;99.90;;;;;;5038497;22;19925;-79
2022/06/14 03:22:11;;;;;;;2.65;1.70;;;6.50;99.90;;;;;;4989740;28;20463;-79
2022/06/14 03:24:49;;;;;;;3.35;2.10;;;6.50;99.90;;;;;;4992439;28;20043;-79
2022/06/14 03:27:28;;;;;;;3.40;1.90;;;6.40;99.90;;;;;;4991942;28;20027;-79
2022/06/14 03:30:19;;;;;;;1.70;1.60;;;6.30;99.90;;;;;;4992055;28;20043;-79
2022/06/14 03:32:54;;;;;;;2.13;1.50;;;6.30;99.90;;;;;;4992019;28;20026;-78
2022/06/14 03:35:55;;;;;;;2.17;1.90;;;6.30;99.90;;;;;;4992067;28;20030;-79
2022/06/14 03:38:26;;;;;;;1.60;1.50;;;6.30;99.90;;;;;;4894033;29;20033;-79
2022/06/14 03:40:52;;;;;;;3.45;1.50;;;6.20;99.90;;;;;;4975697;28;20125;-79
2022/06/14 03:43:19;;;;;;;3.97;1.50;;;6.20;99.90;;;;;;4992031;28;20109;-79
2022/06/14 03:46:01;;;;;;;1.88;1.33;;;6.10;99.90;;;;;;4991787;28;20042;-80
2022/06/14 03:48:27;;;;;;;;;;;6.10;99.90;;;;;;4992094;28;20015;-79
2022/06/14 03:50:59;;;;;;;2.38;1.38;;;6.10;99.90;;;;;;4996689;28;19933;-79
2022/06/14 03:53:40;;;;;;;6.30;1.55;;;6.20;99.90;;;;;;4973965;28;20054;-79
2022/06/14 03:56:30;;;;;;;2.13;1.67;;;6.20;99.90;;;;;;4986547;28;20093;-79
2022/06/14 03:59:31;;;;;;;3.17;1.70;;;6.10;99.90;;;;;;4987739;28;20033;-79
2022/06/14 04:02:53;;;;;;;2.97;1.63;;;6.10;99.90;;;;;;4974545;28;20148;-79
2022/06/14 04:05:23;;;;;;;2.25;1.80;;;6.10;99.90;;;;;;4986589;28;20036;-79
2022/06/14 04:07:56;;;;;;;2.95;2.10;;;6.10;99.90;;;;;;4986068;28;20015;-79
2022/06/14 04:10:41;;;;;;;2.22;1.50;;;6.10;99.90;;;;;;4998479;28;20035;-79
2022/06/14 04:13:25;;;;;;;1.40;1.25;;;6.10;99.90;;;;;;4998563;28;20022;-79
2022/06/14 04:16:10;;;;;;;1.70;1.60;;;6.10;99.90;;;;;;4984976;28;20057;-79
2022/06/14 04:18:54;;;;;;;5.68;1.67;;;6.10;99.90;;;;;;4985369;28;20506;-78
2022/06/14 04:21:35;;;;;;;3.63;1.60;;;6.10;99.90;;;;;;4978753;28;20415;-79
2022/06/14 04:24:10;;;;;;;2.67;1.77;;;6.10;99.90;;;;;;4997790;28;20435;-79
2022/06/14 04:26:56;;;;;;;3.22;1.67;;;6.00;99.90;;;;;;4995354;28;20022;-79
2022/06/14 04:29:26;;;;;;;3.60;1.92;;;6.00;99.90;;;;;;4994814;28;20030;-79
2022/06/14 04:32:02;;;;;;;2.38;1.77;;;6.00;99.90;;;;;;4995123;28;20089;-79
2022/06/14 04:34:31;;;;;;;2.17;1.70;;;6.00;99.90;;;;;;4995586;28;20099;-79
2022/06/14 04:37:07;;;;;;;1.95;1.48;;;6.00;99.90;;;;;;4995132;28;20040;-79
2022/06/14 04:39:43;;;;;;;2.15;1.42;;;6.10;99.90;;;;;;4994953;28;20030;-79
2022/06/14 04:42:21;;;;;;;1.60;1.50;;;6.20;99.90;;;;;;5001865;28;20036;-79
2022/06/14 04:45:18;;;;;;;5.78;1.40;;;6.30;99.90;;;;;;4977493;28;20030;-79
2022/06/14 04:47:57;;;;;;;1.98;1.50;;;6.30;99.90;;;;;;4988828;28;20438;-79
2022/06/14 04:50:32;;;;;;;3.25;1.40;;;6.40;99.90;;;;;;4977301;28;20031;-79
2022/06/14 04:53:25;;;;;;;1.75;1.65;;;6.40;99.90;;;;;;5000528;28;20021;-79
2022/06/14 04:56:02;;;;;;;4.38;1.98;;;6.50;99.90;;;;;;4977673;28;20538;-79
2022/06/14 04:58:38;;;;;;;8.57;2.30;;;6.50;99.90;;;;;;4977164;28;20113;-79
2022/06/14 05:01:11;;;;;;;2.72;1.80;;;6.60;99.90;;;;;;4977143;28;20022;-80
2022/06/14 05:03:45;;;;;;;2.03;1.83;;;6.70;99.90;;;;;;4994931;28;20018;-79
2022/06/14 05:06:13;;;;;;;1.98;1.67;;;6.80;99.90;;;;;;4976987;28;20121;-79
2022/06/14 05:08:52;;;;;;;2.10;1.90;;;6.80;99.90;;;;;;4994644;28;20407;-79
2022/06/14 05:11:29;;;;;;;2.22;1.75;;;6.80;99.90;;;;;;4994843;28;20057;-79
2022/06/14 05:14:19;;;;;;;2.58;2.15;;;7.00;99.90;;;;;;4994427;28;20023;-79
2022/06/14 05:17:06;;;;;;;2.25;1.83;;;7.20;99.90;;;;;;4988136;28;20066;-79
2022/06/14 05:19:49;;;;;;;4.28;2.10;;;7.50;99.90;;;;;;5008289;23;21436;-91
2022/06/14 05:22:20;;;;;;;2.20;2.00;;;7.70;99.90;;;;;;4971992;28;20379;-90
2022/06/14 05:24:45;;;;;;;2.08;1.80;;;7.90;99.90;;;;;;4978238;28;20160;-92
2022/06/14 05:27:27;;;;;;;3.47;2.03;;;8.00;99.90;;;;;;4979032;28;20062;-90
2022/06/14 05:30:08;;;;;;;3.15;2.00;;;8.20;99.90;;;;;;4976186;28;20089;-91
2022/06/14 05:32:58;;;;;;;3.13;1.58;;;8.30;99.90;;;;;;4978780;28;20471;-90
2022/06/14 05:35:48;;;;;;;3.88;1.80;;;8.40;99.90;;;;;;4976792;28;20081;-91
2022/06/14 05:38:22;;;;;;;3.40;1.67;;;8.60;99.90;;;;;;4978056;28;20022;-91
2022/06/14 05:40:55;;;;;;;4.57;1.98;;;8.80;99.90;;;;;;4995889;28;20109;-93
2022/06/14 05:43:27;;;;;;;;;;;8.90;99.90;;;;;;4975892;28;20018;-91
2022/06/14 05:45:56;;;;;;;;;;;9.00;99.90;;;;;;4985073;28;19973;-93
2022/06/14 05:48:30;;;;;;;2.42;1.38;;;9.10;99.90;;;;;;4995913;28;20134;-93
2022/06/14 05:50:58;;;;;;;1.88;1.52;;;9.20;99.90;;;;;;4978202;28;20022;-93
2022/06/14 05:53:26;;;;;;;2.72;1.70;;;9.40;99.90;;;;;;4985995;28;20076;-93
2022/06/14 05:56:01;;;;;;;3.30;2.08;;;9.50;99.90;;;;;;4978570;28;20014;-93
2022/06/14 05:58:37;;;;;;;2.72;2.05;;;9.60;99.90;;;;;;4985101;28;20624;-94
2022/06/14 06:01:12;;;;;;;2.13;1.60;;;9.70;99.90;;;;;;4975044;28;20109;-92
2022/06/14 06:03:53;;;;;;;1.98;1.75;;;9.80;99.90;;;;;;4976107;28;20121;-93
2022/06/14 06:06:20;;;;;;;3.28;1.70;;;9.90;99.90;;;;;;4977290;28;20027;-93
2022/06/14 06:08:54;;;;;;;2.58;1.45;;;10.10;99.90;;;;;;4977970;28;20471;-92
2022/06/14 06:11:32;;;;;;;1.85;1.38;;;10.20;99.90;;;;;;4978970;28;20446;-93
2022/06/14 06:14:11;;;;;;;1.88;1.63;;;10.30;99.90;;;;;;4975301;28;20139;-93
2022/06/14 06:17:09;;;;;;;1.55;1.30;;;10.40;99.90;;;;;;4978675;28;20391;-93
2022/06/14 06:20:19;;;;;;;1.60;1.50;;;10.70;99.90;;;;;;5037932;23;20041;-78
2022/06/14 06:22:53;;;;;;;1.50;1.35;;;11.00;99.90;;;;;;4992182;28;20033;-79
2022/06/14 06:25:25;;;;;;;2.13;1.52;;;11.60;99.90;;;;;;5028593;28;20135;-79
2022/06/14 06:28:11;;;;;;;3.08;1.55;;;12.30;99.90;;;;;;5032183;28;20067;-79
2022/06/14 06:30:48;;;;;;;4.63;1.60;;;13.10;99.90;;;;;;5032126;28;20037;-79
2022/06/14 06:33:16;;;;;;;1.60;1.48;;;14.00;99.90;;;;;;5032199;28;20044;-80
2022/06/14 06:36:02;;;;;;;2.15;1.08;;;14.70;99.90;;;;;;5032280;28;20024;-79
2022/06/14 06:38:49;;;;;;;1.25;0.90;;;15.20;99.90;;;;;;5024560;28;20021;-79
2022/06/14 06:44:07;;;;;;;4.32;1.50;;;15.30;99.90;;;;;;5026469;28;20045;-79
2022/06/14 06:46:42;;;;;;;0.95;0.90;;;15.30;99.90;;;;;;5031854;28;20104;-80
2022/06/14 06:49:12;;;;;;;1.15;0.93;;;15.30;99.90;;;;;;5031859;28;20026;-79
2022/06/14 06:51:45;;;;;;;2.28;1.27;;;15.30;99.90;;;;;;5031730;28;20029;-79
2022/06/14 06:54:34;;;;;;;1.83;1.20;;;15.20;99.90;;;;;;5031669;28;20029;-79
2022/06/14 06:57:01;;;;;;;2.60;1.40;;;15.20;99.90;;;;;;5027809;28;20096;-80
2022/06/14 06:59:54;;;;;;;2.00;1.10;;;15.20;99.90;;;;;;5031832;28;20120;-79
2022/06/14 07:02:48;;;;;;;3.85;1.45;;;15.10;99.90;;;;;;5029974;28;20029;-79
2022/06/14 07:05:17;;;;;;;2.67;1.15;;;15.00;99.90;;;;;;5031677;28;20470;-79
2022/06/14 07:08:12;;;;;;;4.40;1.23;;;15.00;99.90;;;;;;5031488;28;20033;-81
2022/06/14 07:10:48;;;;;;;1.95;1.15;;;15.20;99.90;;;;;;5030200;28;20433;-79
2022/06/14 07:13:38;;;;;;;3.00;1.20;;;15.20;99.90;;;;;;5031691;28;20346;-79
2022/06/14 07:16:26;;;;;;;2.00;0.90;;;15.30;99.90;;;;;;5026019;28;20025;-79
2022/06/14 07:19:28;;;;;;;3.45;1.17;;;15.30;99.90;;;;;;5075299;22;20041;-90
2022/06/14 07:22:20;;;;;;;3.05;0.85;;;15.40;99.90;;;;;;4990949;28;20030;-92
2022/06/14 07:24:48;;;;;;;1.38;1.00;;;15.40;99.90;;;;;;5011472;28;20028;-90
2022/06/14 07:27:18;;;;;;;4.25;1.83;;;15.50;99.90;;;;;;5012461;28;20022;-90
2022/06/14 07:29:58;;;;;;;1.85;1.17;;;15.50;99.90;;;;;;5011597;28;20034;-88
2022/06/14 07:32:34;;;;;;;2.10;1.10;;;15.60;99.90;;;;;;5010917;28;20029;-89
2022/06/14 07:35:00;;;;;;;5.63;1.10;;;15.60;99.90;;;;;;5004175;28;20112;-85
2022/06/14 07:37:40;;;;;;;2.50;1.30;;;15.60;99.90;;;;;;5010125;28;20002;-89
2022/06/14 07:40:21;;;;;;;4.82;1.50;;;15.60;99.90;;;;;;5008953;28;20022;-88
2022/06/14 07:42:57;;;;;;;2.40;1.15;;;15.80;99.90;;;;;;5009486;28;20045;-88
2022/06/14 07:45:37;;;;;;;2.22;1.50;;;15.80;99.90;;;;;;5009830;28;20021;-88
2022/06/14 07:48:12;;;;;;;1.35;1.20;;;15.90;99.90;;;;;;4993106;28;20018;-89
2022/06/14 07:50:59;;;;;;;1.48;1.27;;;16.00;99.90;;;;;;4985632;28;20210;-88
2022/06/14 07:53:43;;;;;;;1.90;1.25;;;16.10;99.90;;;;;;5010836;28;20105;-88
2022/06/14 07:56:16;;;;;;;3.53;1.70;;;16.10;99.90;;;;;;5009992;28;20109;-89
2022/06/14 07:59:02;;;;;;;2.45;1.27;;;16.20;99.90;;;;;;5009209;28;20021;-88
2022/06/14 08:01:35;;;;;;;3.90;1.15;;;16.30;99.90;;;;;;5010146;28;20024;-89
2022/06/14 08:04:18;;;;;;;2.45;1.50;;;16.40;99.90;;;;;;5014918;28;20053;-89
2022/06/14 08:07:07;;;;;;;3.05;1.10;;;16.50;99.90;;;;;;5001542;28;20430;-89
2022/06/14 08:09:53;;;;;;;2.50;1.30;;;16.60;99.90;;;;;;5007181;28;20042;-89
2022/06/14 08:12:39;;;;;;;2.15;0.95;;;16.80;99.90;;;;;;4992149;28;20113;-88
2022/06/14 08:15:15;;;;;;;4.45;1.20;;;16.80;99.90;;;;;;4999307;28;20044;-87
2022/06/14 08:17:48;;;;;;;2.60;1.10;;;16.90;99.90;;;;;;5009180;28;20029;-89
2022/06/14 08:20:39;;;;;;;2.53;0.93;;;17.10;99.90;;;;;;5007334;28;20414;-88
2022/06/14 08:23:25;;;;;;;3.72;1.63;;;17.30;99.90;;;;;;5008072;28;20018;-87
2022/06/14 08:25:56;;;;;;;5.20;1.23;;;17.50;99.90;;;;;;4992195;28;20119;-88
2022/06/14 08:28:53;;;;;;;2.13;1.50;;;17.60;99.90;;;;;;5007373;28;20021;-88
2022/06/14 08:31:40;;;;;;;3.25;0.93;;;17.60;99.90;;;;;;5002007;28;20085;-88
2022/06/14 08:34:22;;;;;;;2.58;1.15;;;17.80;99.90;;;;;;5009746;28;20491;-89
2022/06/14 08:36:58;;;;;;;0.70;0.70;;;18.20;99.90;;;;;;5008882;28;20029;-89
2022/06/14 08:39:42;;;;;;;2.70;0.95;;;18.80;99.90;;;;;;5002816;28;20085;-88
2022/06/14 08:42:28;;;;;;;2.70;0.70;;;19.80;82.50;;;;;;5007691;28;20022;-89
2022/06/14 08:45:05;;;;;;;2.08;0.63;;;20.80;75.40;;;;;;5007820;28;20030;-86
2022/06/14 08:47:46;;;;;;;1.50;0.80;;;21.70;70.00;;;;;;5010046;28;20023;-85
2022/06/14 08:50:20;;;;;;;1.98;0.43;;;22.60;65.50;;;;;;5008220;28;20041;-85
2022/06/14 08:52:59;;;;;;;2.45;0.77;;;23.70;60.00;;;;;;5005853;28;20058;-87
2022/06/14 08:55:49;;;;;;;0.60;0.45;;;24.90;56.10;;;;;;5004860;28;20054;-88
2022/06/14 08:58:27;;;;;;;0.73;0.40;;;25.70;50.60;;;;;;5004930;28;20025;-86
2022/06/14 09:00:59;;;;;;;0.85;0.40;;;26.20;49.90;;;;;;5007734;28;20026;-87
2022/06/14 09:03:35;;;;;;;;;;;26.30;49.00;;;;;;4993551;28;20018;-86
2022/06/14 09:06:13;;;;;;;0.93;0.50;;;26.70;47.60;;;;;;5013243;28;19911;-87
2022/06/14 09:08:45;;;;;;;0.40;0.40;;;26.60;45.90;;;;;;5007048;28;20014;-87
2022/06/14 09:11:44;;;;;;;1.80;0.43;;;26.90;47.30;;;;;;5012997;28;20032;-87
2022/06/14 09:14:13;;;;;;;0.98;0.65;;;27.50;44.60;;;;;;5008104;28;20387;-86
2022/06/14 09:16:44;;;;;;;1.55;0.60;;;27.60;44.50;;;;;;5013152;28;20018;-87
2022/06/14 09:20:02;;;;;;;2.05;0.40;;;28.10;44.60;;;;;;5012931;28;20599;-87
2022/06/14 09:22:46;;;;;;;0.50;0.30;;;29.30;43.40;;;;;;5003548;28;20038;-88
2022/06/14 09:25:21;;;;;;;1.83;0.70;;;30.20;38.40;;;;;;5006161;28;20027;-89
2022/06/14 09:27:53;;;;;;;3.35;0.57;;;30.10;38.70;;;;;;5013365;28;20076;-87
2022/06/14 09:30:20;;;;;;;;;;;30.40;37.80;;;;;;5013512;28;20038;-89
2022/06/14 09:36:02;;;;;;;2.70;0.88;;;29.70;39.10;;;;;;5012778;28;20037;-87
2022/06/14 09:38:56;;;;;;;3.50;0.50;;;29.80;39.60;;;;;;5013070;28;20064;-88
2022/06/14 09:41:43;;;;;;;1.02;0.60;;;30.10;38.00;;;;;;5006776;28;20065;-90
2022/06/14 09:44:20;;;;;;;1.38;0.63;;;29.90;38.60;;;;;;5003877;28;20014;-85
2022/06/14 09:47:04;;;;;;;2.83;0.65;;;30.60;37.80;;;;;;5006336;28;20372;-87
2022/06/14 09:50:16;;;;;;;0.98;0.70;;;29.30;39.30;;;;;;4989933;28;20029;-86
2022/06/14 09:52:44;;;;;;;;;;;29.70;38.00;;;;;;4930557;29;20055;-86
2022/06/14 09:55:29;;;;;;;0.60;0.40;;;30.40;39.30;;;;;;4932006;29;19961;-86
2022/06/14 09:58:01;;;;;;;2.10;0.50;;;30.10;36.60;;;;;;4981986;28;20026;-87
2022/06/14 10:00:27;;;;;;;1.35;0.50;;;30.40;37.70;;;;;;5006952;28;20071;-87
2022/06/14 10:03:36;;;;;;;0.93;0.45;;;29.40;36.40;;;;;;5009887;28;20402;-91
2022/06/14 10:06:17;;;;;;;1.70;0.50;;;29.20;39.50;;;;;;5009251;28;20014;-90
2022/06/14 10:08:49;;;;;;;1.05;0.40;;;29.60;39.50;;;;;;5013007;28;20024;-88
2022/06/14 10:11:21;;;;;;;;;;;29.80;35.60;;;;;;5013015;28;20026;-89
2022/06/14 10:13:58;;;;;;;0.47;0.45;;;30.00;36.90;;;;;;5005232;28;20503;-86
2022/06/14 10:16:57;;;;;;;1.48;0.52;;;30.40;35.70;;;;;;5011258;28;21077;-87
2022/06/14 10:19:38;;;;;;;1.05;0.60;;;31.30;37.10;;;;;;5009024;28;20034;-88
2022/06/14 10:22:18;;;;;;;1.27;0.70;;;30.90;33.50;;;;;;5003597;28;20033;-88
2022/06/14 10:25:10;;;;;;;0.63;0.40;;;30.70;36.30;;;;;;5011376;28;20763;-87
2022/06/14 10:30:47;;;;;;;1.02;0.30;;;31.70;36.00;;;;;;5011087;28;20394;-88
2022/06/14 10:33:45;;;;;;;0.57;0.30;;;32.20;35.40;;;;;;5010457;28;20025;-88
2022/06/14 10:36:37;;;;;;;0.93;0.30;;;32.20;35.80;;;;;;4981380;28;20043;-89
2022/06/14 10:39:17;;;;;;;2.03;0.40;;;32.80;34.50;;;;;;4969423;28;20054;-88
2022/06/14 10:42:12;;;;;;;0.40;0.40;;;32.60;32.80;;;;;;5010272;28;20018;-87
2022/06/14 10:44:59;;;;;;;2.92;0.63;;;31.80;34.50;;;;;;5006459;28;20746;-86
2022/06/14 10:47:34;;;;;;;0.85;0.43;;;31.30;34.50;;;;;;5006286;28;20032;-87
2022/06/14 10:49:59;;;;;;;1.67;0.80;;;32.00;37.00;;;;;;5004929;28;20034;-86
2022/06/14 10:52:28;;;;;;;0.50;0.30;;;33.10;35.50;;;;;;5011188;28;20022;-86
2022/06/14 10:55:16;;;;;;;1.60;0.43;;;33.80;31.90;;;;;;5011087;28;20026;-86
2022/06/14 10:58:23;;;;;;;2.05;0.40;;;33.70;32.20;;;;;;5010885;28;20030;-89
2022/06/14 11:01:07;;;;;;;2.40;0.63;;;33.20;33.60;;;;;;5003575;28;20557;-89
2022/06/14 11:03:57;;;;;;;2.28;0.30;;;33.60;32.40;;;;;;5004641;28;20041;-87
2022/06/14 11:07:04;;;;;;;1.58;1.48;;;34.50;32.90;;;;;;5004381;28;20391;-89
2022/06/14 11:09:36;;;;;;;4.18;0.75;;;35.50;30.60;;;;;;4993463;28;20033;-87
2022/06/14 11:12:12;;;;;;;2.38;0.47;;;36.00;28.20;;;;;;4993973;28;20033;-89
2022/06/14 11:14:52;;;;;;;2.70;0.90;;;35.60;29.70;;;;;;5005578;28;20527;-88
2022/06/14 11:17:36;;;;;;;1.15;0.40;;;36.00;29.90;;;;;;5006117;28;20033;-83
2022/06/14 11:20:17;;;;;;;0.32;0.30;;;36.20;30.80;;;;;;4986456;28;20038;-83
2022/06/14 11:23:14;;;;;;;3.05;0.45;;;35.90;28.50;;;;;;5008967;28;20463;-83
2022/06/14 11:26:06;;;;;;;1.55;0.45;;;35.60;29.50;;;;;;5006267;28;20041;-83
2022/06/14 11:28:52;;;;;;;1.80;0.40;;;35.10;29.20;;;;;;5010465;28;20545;-84
2022/06/14 11:31:46;;;;;;;0.77;0.40;;;35.10;30.00;;;;;;5010334;28;20553;-83
2022/06/14 11:34:36;;;;;;;0.45;0.30;;;34.80;28.00;;;;;;4993191;28;20026;-85
2022/06/14 11:37:28;;;;;;;1.48;0.30;;;34.30;31.10;;;;;;5003192;28;20034;-85
2022/06/14 11:40:26;;;;;;;2.70;0.50;;;35.50;30.00;;;;;;5009612;28;20755;-85
2022/06/14 11:43:08;;;;;;;0.25;0.20;;;34.70;34.00;;;;;;5006491;28;20030;-84
2022/06/14 11:45:57;;;;;;;0.75;0.45;;;36.20;29.90;;;;;;4982801;28;20045;-84
2022/06/14 11:48:41;;;;;;;1.77;0.40;;;36.60;28.60;;;;;;5002173;28;20589;-85
2022/06/14 11:51:15;;;;;;;1.85;0.30;;;37.20;29.90;;;;;;5000167;28;20060;-85
2022/06/14 11:54:14;;;;;;;0.80;0.50;;;37.40;31.00;;;;;;5003383;28;20100;-84
2022/06/14 11:56:58;;;;;;;1.02;0.40;;;38.30;27.20;;;;;;4997396;28;20038;-84
2022/06/14 11:59:49;;;;;;;2.22;0.40;;;38.50;29.40;;;;;;5001324;28;20034;-83
2022/06/14 12:02:38;;;;;;;1.08;0.28;;;38.20;27.40;;;;;;5002687;28;20045;-82
2022/06/14 12:05:37;;;;;;;2.45;0.40;;;38.10;28.20;;;;;;4995665;28;20044;-83
2022/06/14 12:08:29;;;;;;;0.85;0.40;;;37.30;27.40;;;;;;5010326;28;20014;-82
2022/06/14 12:11:24;;;;;;;2.70;0.63;;;36.90;27.40;;;;;;5003410;28;20038;-83
2022/06/14 12:14:14;;;;;;;3.35;0.47;;;36.40;28.90;;;;;;5001713;28;20049;-83
2022/06/14 12:16:47;;;;;;;2.00;0.50;;;35.40;28.50;;;;;;5006484;28;20026;-83
2022/06/14 12:19:26;;;;;;;1.33;0.50;;;36.60;29.30;;;;;;5014442;23;20068;-80
2022/06/14 12:22:34;;;;;;;1.23;0.63;;;36.30;29.20;;;;;;4977174;28;20023;-80
2022/06/14 12:28:15;;;;;;;0.68;0.47;;;36.90;28.90;;;;;;4972052;28;20152;-80
2022/06/14 12:30:42;;;;;;;0.10;0.10;;;37.50;30.50;;;;;;4986260;28;20111;-80
2022/06/14 12:33:20;;;;;;;1.58;0.40;;;38.40;27.90;;;;;;4989113;28;20034;-80
2022/06/14 12:36:04;;;;;;;2.13;0.60;;;38.20;27.40;;;;;;4990334;28;20030;-80
2022/06/14 12:38:37;;;;;;;0.63;0.30;;;38.40;27.80;;;;;;4990438;28;20026;-80
2022/06/14 12:41:19;;;;;;;0.55;0.30;;;39.30;27.90;;;;;;4991118;28;20081;-80
2022/06/14 12:44:23;;;;;;;2.08;0.30;;;39.60;27.50;;;;;;4983780;28;20137;-80
2022/06/14 12:46:51;;;;;;;0.47;0.30;;;37.30;27.00;;;;;;4991801;28;20069;-80
2022/06/14 12:49:31;;;;;;;1.77;0.57;;;37.40;30.20;;;;;;4994317;28;20034;-80
2022/06/14 12:52:11;;;;;;;0.38;0.30;;;37.80;27.40;;;;;;4994630;28;20030;-80
2022/06/14 12:55:09;;;;;;;0.35;0.22;;;39.00;28.40;;;;;;4991128;28;20023;-80
2022/06/14 12:57:44;;;;;;;2.63;0.40;;;39.90;26.00;;;;;;4990158;28;20037;-80
2022/06/14 13:00:30;;;;;;;0.93;0.30;;;39.20;27.10;;;;;;4994363;28;20407;-80
2022/06/14 13:02:55;;;;;;;1.83;0.35;;;39.80;26.80;;;;;;4990889;28;20077;-80
2022/06/14 13:05:28;;;;;;;3.15;0.60;;;38.40;26.80;;;;;;4992618;28;20034;-80
2022/06/14 13:08:12;;;;;;;2.70;0.50;;;38.70;26.20;;;;;;5009094;28;20025;-80
2022/06/14 13:10:59;;;;;;;1.42;0.30;;;39.00;25.70;;;;;;4992490;28;20036;-80
2022/06/14 13:13:44;;;;;;;1.25;0.50;;;38.80;29.10;;;;;;4994392;28;20014;-81
2022/06/14 13:16:38;;;;;;;1.95;0.32;;;37.60;27.00;;;;;;4992038;28;20045;-81
2022/06/14 13:19:06;;;;;;;0.57;0.40;;;38.50;29.20;;;;;;5006671;23;20018;-78
2022/06/14 13:22:17;;;;;;;2.10;0.73;;;38.90;29.90;;;;;;5013545;28;20147;-78
2022/06/14 13:25:01;;;;;;;0.57;0.40;;;38.50;26.80;;;;;;5009381;28;20022;-79
2022/06/14 13:28:05;;;;;;;1.23;0.52;;;39.00;28.00;;;;;;5009120;28;20022;-79
2022/06/14 13:30:58;;;;;;;1.90;0.30;;;38.90;26.40;;;;;;5011766;28;20033;-79
2022/06/14 13:34:01;;;;;;;0.85;0.30;;;39.90;27.40;;;;;;5005957;28;20366;-79
2022/06/14 13:36:46;;;;;;;3.65;0.30;;;40.90;28.50;;;;;;5008257;28;20021;-79
2022/06/14 13:39:23;;;;;;;1.20;0.43;;;40.60;27.70;;;;;;5013408;28;20080;-78
2022/06/14 13:42:03;;;;;;;0.55;0.35;;;40.20;27.30;;;;;;5007554;28;20014;-78
2022/06/14 13:44:37;;;;;;;1.50;0.40;;;39.20;27.40;;;;;;5007041;28;20041;-78
2022/06/14 13:47:24;;;;;;;1.58;0.50;;;38.70;28.40;;;;;;5013710;28;20368;-79
2022/06/14 13:50:20;;;;;;;2.50;0.70;;;38.00;25.50;;;;;;5013558;28;20471;-78
2022/06/14 13:52:55;;;;;;;1.15;0.50;;;37.70;25.80;;;;;;5006490;28;20033;-78
2022/06/14 13:55:21;;;;;;;1.20;0.43;;;37.60;27.40;;;;;;4995506;28;20184;-78
2022/06/14 13:57:53;;;;;;;1.35;0.50;;;38.60;26.20;;;;;;5013641;28;20460;-78
2022/06/14 14:00:19;;;;;;;1.02;0.45;;;38.10;29.70;;;;;;5012970;28;20514;-78
2022/06/14 14:03:22;;;;;;;1.73;0.40;;;39.20;29.00;;;;;;5013155;28;20025;-78
2022/06/14 14:06:17;;;;;;;1.02;0.43;;;39.40;26.30;;;;;;5010280;28;20026;-78
2022/06/14 14:08:54;;;;;;;1.05;0.45;;;39.10;26.40;;;;;;4979494;28;20447;-79
2022/06/14 14:11:45;;;;;;;3.20;0.38;;;37.80;26.70;;;;;;5013306;28;20029;-78
2022/06/14 14:14:48;;;;;;;1.50;0.63;;;38.00;27.40;;;;;;5013293;28;20027;-78
2022/06/14 14:17:38;;;;;;;1.33;0.35;;;39.10;26.70;;;;;;5006712;28;20094;-79
2022/06/14 14:20:48;;;;;;;1.38;0.40;;;39.80;29.00;;;;;;5025071;23;20426;-84
2022/06/14 14:23:27;;;;;;;2.25;0.47;;;39.80;28.40;;;;;;4965400;28;20041;-84
2022/06/14 14:26:09;;;;;;;1.00;0.50;;;40.50;26.20;;;;;;4994703;28;20483;-83